sensor_id;sensor_type;location;lat;lon;timestamp;pressure;altitude;pressure_sealevel;temperature;humidity
77003;BME280;65939;50.060;14.288;2024-01-16T00:00:46;95881.47;;;-0.60;83.11
77003;BME280;65939;50.060;14.288;2024-01-16T00:02:47;95879.00;;;-0.62;83.69
77003;BME280;65939;50.060;14.288;2024-01-16T00:04:47;95875.78;;;-0.64;82.68
77003;BME280;65939;50.060;14.288;2024-01-16T00:06:48;95890.31;;;-0.64;81.99
77003;BME280;65939;50.060;14.288;2024-01-16T00:08:49;95893.00;;;-0.66;82.08
77003;BME280;65939;50.060;14.288;2024-01-16T00:10:50;95894.88;;;-0.68;82.22
77003;BME280;65939;50.060;14.288;2024-01-16T00:12:51;95899.19;;;-0.68;81.68
77003;BME280;65939;50.060;14.288;2024-01-16T00:14:52;95901.75;;;-0.68;81.22
77003;BME280;65939;50.060;14.288;2024-01-16T00:16:52;95892.06;;;-0.65;81.45
77003;BME280;65939;50.060;14.288;2024-01-16T00:18:53;95906.25;;;-0.61;81.04
77003;BME280;65939;50.060;14.288;2024-01-16T00:20:53;95903.34;;;-0.56;80.70
77003;BME280;65939;50.060;14.288;2024-01-16T00:22:54;95909.72;;;-0.51;80.42
77003;BME280;65939;50.060;14.288;2024-01-16T00:24:55;95908.53;;;-0.46;80.32
77003;BME280;65939;50.060;14.288;2024-01-16T00:26:56;95903.97;;;-0.43;79.93
77003;BME280;65939;50.060;14.288;2024-01-16T00:28:57;95904.56;;;-0.39;79.35
77003;BME280;65939;50.060;14.288;2024-01-16T00:30:57;95927.38;;;-0.36;79.38
77003;BME280;65939;50.060;14.288;2024-01-16T00:32:58;95923.19;;;-0.37;79.00
77003;BME280;65939;50.060;14.288;2024-01-16T00:34:59;95914.81;;;-0.39;79.06
77003;BME280;65939;50.060;14.288;2024-01-16T00:36:59;95916.56;;;-0.40;77.92
77003;BME280;65939;50.060;14.288;2024-01-16T00:39:00;95918.56;;;-0.43;78.21
77003;BME280;65939;50.060;14.288;2024-01-16T00:41:01;95915.31;;;-0.45;76.99
77003;BME280;65939;50.060;14.288;2024-01-16T00:43:02;95910.44;;;-0.49;76.46
77003;BME280;65939;50.060;14.288;2024-01-16T00:45:03;95922.69;;;-0.52;76.61
77003;BME280;65939;50.060;14.288;2024-01-16T00:47:04;95925.47;;;-0.55;76.03
77003;BME280;65939;50.060;14.288;2024-01-16T00:49:06;95922.47;;;-0.60;76.09
77003;BME280;65939;50.060;14.288;2024-01-16T00:51:08;95918.41;;;-0.63;76.47
77003;BME280;65939;50.060;14.288;2024-01-16T00:53:08;95917.94;;;-0.68;75.80
77003;BME280;65939;50.060;14.288;2024-01-16T00:55:09;95913.88;;;-0.70;75.99
77003;BME280;65939;50.060;14.288;2024-01-16T00:57:09;95922.59;;;-0.73;75.81
77003;BME280;65939;50.060;14.288;2024-01-16T00:59:10;95932.16;;;-0.75;75.22
77003;BME280;65939;50.060;14.288;2024-01-16T01:01:11;95941.72;;;-0.77;75.64
77003;BME280;65939;50.060;14.288;2024-01-16T01:03:11;95947.78;;;-0.78;75.49
77003;BME280;65939;50.060;14.288;2024-01-16T01:05:12;95948.69;;;-0.79;75.73
77003;BME280;65939;50.060;14.288;2024-01-16T01:07:16;95935.09;;;-0.80;75.78
77003;BME280;65939;50.060;14.288;2024-01-16T01:09:17;95950.44;;;-0.80;75.35
77003;BME280;65939;50.060;14.288;2024-01-16T01:11:17;95947.09;;;-0.80;75.86
77003;BME280;65939;50.060;14.288;2024-01-16T01:13:18;95967.56;;;-0.80;75.95
77003;BME280;65939;50.060;14.288;2024-01-16T01:15:20;95957.47;;;-0.82;76.39
77003;BME280;65939;50.060;14.288;2024-01-16T01:17:21;95964.31;;;-0.82;76.64
77003;BME280;65939;50.060;14.288;2024-01-16T01:19:21;95963.50;;;-0.83;76.52
77003;BME280;65939;50.060;14.288;2024-01-16T01:21:22;95971.19;;;-0.83;77.01
77003;BME280;65939;50.060;14.288;2024-01-16T01:23:23;95967.81;;;-0.83;77.30
77003;BME280;65939;50.060;14.288;2024-01-16T01:25:23;95972.94;;;-0.83;76.99
77003;BME280;65939;50.060;14.288;2024-01-16T01:27:26;95971.31;;;-0.84;77.17
77003;BME280;65939;50.060;14.288;2024-01-16T01:29:27;95973.88;;;-0.84;77.16
77003;BME280;65939;50.060;14.288;2024-01-16T01:31:27;95967.13;;;-0.85;77.61
77003;BME280;65939;50.060;14.288;2024-01-16T01:33:28;95971.31;;;-0.84;77.45
77003;BME280;65939;50.060;14.288;2024-01-16T01:35:29;95977.25;;;-0.84;77.27
77003;BME280;65939;50.060;14.288;2024-01-16T01:37:29;95990.88;;;-0.83;77.26
77003;BME280;65939;50.060;14.288;2024-01-16T01:39:30;95976.44;;;-0.84;77.10
77003;BME280;65939;50.060;14.288;2024-01-16T01:41:30;95976.44;;;-0.84;77.43
77003;BME280;65939;50.060;14.288;2024-01-16T01:43:31;95971.31;;;-0.84;76.99
77003;BME280;65939;50.060;14.288;2024-01-16T01:45:32;95978.06;;;-0.83;77.18
77003;BME280;65939;50.060;14.288;2024-01-16T01:47:32;95976.22;;;-0.81;77.19
77003;BME280;65939;50.060;14.288;2024-01-16T01:49:33;95978.63;;;-0.80;77.58
77003;BME280;65939;50.060;14.288;2024-01-16T01:51:35;96000.88;;;-0.80;77.57
77003;BME280;65939;50.060;14.288;2024-01-16T01:53:38;96002.28;;;-0.76;77.14
77003;BME280;65939;50.060;14.288;2024-01-16T01:55:38;95999.72;;;-0.76;77.24
77003;BME280;65939;50.060;14.288;2024-01-16T01:57:39;95998.09;;;-0.77;77.61
77003;BME280;65939;50.060;14.288;2024-01-16T01:59:40;96004.03;;;-0.77;77.56
77003;BME280;65939;50.060;14.288;2024-01-16T02:01:42;96006.22;;;-0.72;77.76
77003;BME280;65939;50.060;14.288;2024-01-16T02:03:45;96003.44;;;-0.69;77.40
77003;BME280;65939;50.060;14.288;2024-01-16T02:05:45;96015.06;;;-0.65;77.18
77003;BME280;65939;50.060;14.288;2024-01-16T02:07:46;96007.16;;;-0.62;77.40
77003;BME280;65939;50.060;14.288;2024-01-16T02:09:47;96003.41;;;-0.58;77.98
77003;BME280;65939;50.060;14.288;2024-01-16T02:11:48;96021.84;;;-0.53;78.28
77003;BME280;65939;50.060;14.288;2024-01-16T02:13:49;96015.75;;;-0.52;77.81
77003;BME280;65939;50.060;14.288;2024-01-16T02:15:50;96030.19;;;-0.51;77.63
77003;BME280;65939;50.060;14.288;2024-01-16T02:17:51;96026.59;;;-0.48;77.83
77003;BME280;65939;50.060;14.288;2024-01-16T02:19:51;96030.69;;;-0.45;77.50
77003;BME280;65939;50.060;14.288;2024-01-16T02:21:58;96033.81;;;-0.42;77.59
77003;BME280;65939;50.060;14.288;2024-01-16T02:23:59;96041.38;;;-0.40;78.04
77003;BME280;65939;50.060;14.288;2024-01-16T02:26:01;96038.59;;;-0.37;77.48
77003;BME280;65939;50.060;14.288;2024-01-16T02:28:03;96042.66;;;-0.35;78.17
77003;BME280;65939;50.060;14.288;2024-01-16T02:30:04;96041.84;;;-0.35;78.30
77003;BME280;65939;50.060;14.288;2024-01-16T02:32:06;96043.56;;;-0.36;77.74
77003;BME280;65939;50.060;14.288;2024-01-16T02:34:07;96039.28;;;-0.35;77.59
77003;BME280;65939;50.060;14.288;2024-01-16T02:36:09;96038.34;;;-0.34;77.81
77003;BME280;65939;50.060;14.288;2024-01-16T02:38:09;96043.56;;;-0.36;77.58
77003;BME280;65939;50.060;14.288;2024-01-16T02:40:10;96053.03;;;-0.36;77.72
77003;BME280;65939;50.060;14.288;2024-01-16T02:42:11;96043.84;;;-0.39;77.68
77003;BME280;65939;50.060;14.288;2024-01-16T02:44:12;96056.75;;;-0.40;77.56
77003;BME280;65939;50.060;14.288;2024-01-16T02:46:13;96060.28;;;-0.41;77.81
77003;BME280;65939;50.060;14.288;2024-01-16T02:48:14;96057.94;;;-0.44;77.80
77003;BME280;65939;50.060;14.288;2024-01-16T02:50:15;96055.25;;;-0.43;77.92
77003;BME280;65939;50.060;14.288;2024-01-16T02:52:16;96051.28;;;-0.47;77.27
77003;BME280;65939;50.060;14.288;2024-01-16T02:54:17;96049.66;;;-0.48;77.66
77003;BME280;65939;50.060;14.288;2024-01-16T02:56:17;96053.16;;;-0.49;77.60
77003;BME280;65939;50.060;14.288;2024-01-16T02:58:18;96053.97;;;-0.49;77.25
77003;BME280;65939;50.060;14.288;2024-01-16T03:00:19;96055.50;;;-0.46;77.85
77003;BME280;65939;50.060;14.288;2024-01-16T03:02:19;96067.16;;;-0.42;77.23
77003;BME280;65939;50.060;14.288;2024-01-16T03:04:20;96062.84;;;-0.41;77.54
77003;BME280;65939;50.060;14.288;2024-01-16T03:06:22;96058.28;;;-0.38;76.90
77003;BME280;65939;50.060;14.288;2024-01-16T03:08:23;96072.34;;;-0.32;77.37
77003;BME280;65939;50.060;14.288;2024-01-16T03:10:24;96066.09;;;-0.28;77.13
77003;BME280;65939;50.060;14.288;2024-01-16T03:12:25;96065.13;;;-0.27;77.13
77003;BME280;65939;50.060;14.288;2024-01-16T03:14:25;96070.03;;;-0.24;77.00
77003;BME280;65939;50.060;14.288;2024-01-16T03:16:26;96074.94;;;-0.21;76.59
77003;BME280;65939;50.060;14.288;2024-01-16T03:18:27;96075.84;;;-0.22;76.43
77003;BME280;65939;50.060;14.288;2024-01-16T03:20:28;96074.09;;;-0.21;76.71
77003;BME280;65939;50.060;14.288;2024-01-16T03:22:29;96075.03;;;-0.22;76.53
77003;BME280;65939;50.060;14.288;2024-01-16T03:24:29;96082.84;;;-0.24;76.93
77003;BME280;65939;50.060;14.288;2024-01-16T03:26:31;96087.50;;;-0.29;76.52
77003;BME280;65939;50.060;14.288;2024-01-16T03:28:31;96085.19;;;-0.32;76.76
77003;BME280;65939;50.060;14.288;2024-01-16T03:30:32;96090.31;;;-0.32;76.70
77003;BME280;65939;50.060;14.288;2024-01-16T03:32:33;96092.19;;;-0.34;76.39
77003;BME280;65939;50.060;14.288;2024-01-16T03:34:33;96094.28;;;-0.39;76.87
77003;BME280;65939;50.060;14.288;2024-01-16T03:36:34;96102.22;;;-0.42;76.81
77003;BME280;65939;50.060;14.288;2024-01-16T03:38:35;96105.13;;;-0.47;76.53
77003;BME280;65939;50.060;14.288;2024-01-16T03:40:37;96096.97;;;-0.52;76.97
77003;BME280;65939;50.060;14.288;2024-01-16T03:42:38;96103.38;;;-0.58;77.07
77003;BME280;65939;50.060;14.288;2024-01-16T03:44:41;96104.53;;;-0.62;77.31
77003;BME280;65939;50.060;14.288;2024-01-16T03:46:42;96102.34;;;-0.66;77.18
77003;BME280;65939;50.060;14.288;2024-01-16T03:48:43;96102.56;;;-0.69;77.22
77003;BME280;65939;50.060;14.288;2024-01-16T03:50:44;96108.13;;;-0.76;77.54
77003;BME280;65939;50.060;14.288;2024-01-16T03:52:45;96101.53;;;-0.78;77.19
77003;BME280;65939;50.060;14.288;2024-01-16T03:54:46;96102.66;;;-0.82;77.67
77003;BME280;65939;50.060;14.288;2024-01-16T03:56:47;96099.41;;;-0.84;77.73
77003;BME280;65939;50.060;14.288;2024-01-16T03:58:47;96103.94;;;-0.88;77.99
77003;BME280;65939;50.060;14.288;2024-01-16T04:00:48;96104.97;;;-0.90;77.75
77003;BME280;65939;50.060;14.288;2024-01-16T04:02:51;96113.69;;;-0.93;78.23
77003;BME280;65939;50.060;14.288;2024-01-16T04:04:51;96109.75;;;-0.97;78.29
77003;BME280;65939;50.060;14.288;2024-01-16T04:06:52;96112.44;;;-0.99;78.33
77003;BME280;65939;50.060;14.288;2024-01-16T04:08:53;96113.59;;;-1.03;78.25
77003;BME280;65939;50.060;14.288;2024-01-16T04:10:53;96106.00;;;-1.04;78.56
77003;BME280;65939;50.060;14.288;2024-01-16T04:12:54;96116.38;;;-1.06;79.08
77003;BME280;65939;50.060;14.288;2024-01-16T04:14:55;96114.84;;;-1.08;78.81
77003;BME280;65939;50.060;14.288;2024-01-16T04:16:55;96126.84;;;-1.09;79.22
77003;BME280;65939;50.060;14.288;2024-01-16T04:18:56;96124.38;;;-1.10;79.44
77003;BME280;65939;50.060;14.288;2024-01-16T04:20:56;96123.56;;;-1.11;79.66
77003;BME280;65939;50.060;14.288;2024-01-16T04:22:57;96129.28;;;-1.07;79.63
77003;BME280;65939;50.060;14.288;2024-01-16T04:24:58;96140.03;;;-1.02;80.48
77003;BME280;65939;50.060;14.288;2024-01-16T04:26:59;96133.59;;;-0.97;80.19
77003;BME280;65939;50.060;14.288;2024-01-16T04:28:59;96141.78;;;-0.91;80.50
77003;BME280;65939;50.060;14.288;2024-01-16T04:31:00;96127.81;;;-0.87;80.56
77003;BME280;65939;50.060;14.288;2024-01-16T04:33:03;96139.38;;;-0.82;80.38
77003;BME280;65939;50.060;14.288;2024-01-16T04:35:04;96129.72;;;-0.78;79.98
77003;BME280;65939;50.060;14.288;2024-01-16T04:37:05;96137.28;;;-0.77;80.51
77003;BME280;65939;50.060;14.288;2024-01-16T04:39:05;96133.91;;;-0.77;80.32
77003;BME280;65939;50.060;14.288;2024-01-16T04:41:06;96139.81;;;-0.77;79.97
77003;BME280;65939;50.060;14.288;2024-01-16T04:43:07;96143.19;;;-0.76;80.12
77003;BME280;65939;50.060;14.288;2024-01-16T04:45:08;96151.94;;;-0.79;80.01
77003;BME280;65939;50.060;14.288;2024-01-16T04:47:08;96157.19;;;-0.80;79.89
77003;BME280;65939;50.060;14.288;2024-01-16T04:49:09;96163.03;;;-0.78;79.79
77003;BME280;65939;50.060;14.288;2024-01-16T04:51:10;96162.88;;;-0.77;79.91
77003;BME280;65939;50.060;14.288;2024-01-16T04:53:10;96156.59;;;-0.73;79.78
77003;BME280;65939;50.060;14.288;2024-01-16T04:55:11;96162.44;;;-0.70;80.47
77003;BME280;65939;50.060;14.288;2024-01-16T04:57:12;96159.75;;;-0.69;79.62
77003;BME280;65939;50.060;14.288;2024-01-16T04:59:13;96174.91;;;-0.66;79.72
77003;BME280;65939;50.060;14.288;2024-01-16T05:01:13;96181.66;;;-0.65;80.03
77003;BME280;65939;50.060;14.288;2024-01-16T05:03:14;96172.34;;;-0.66;79.71
77003;BME280;65939;50.060;14.288;2024-01-16T05:05:15;96176.75;;;-0.68;79.92
77003;BME280;65939;50.060;14.288;2024-01-16T05:07:16;96183.63;;;-0.68;79.36
77003;BME280;65939;50.060;14.288;2024-01-16T05:09:16;96183.75;;;-0.70;79.78
77003;BME280;65939;50.060;14.288;2024-01-16T05:11:18;96177.00;;;-0.71;79.66
77003;BME280;65939;50.060;14.288;2024-01-16T05:13:19;96173.50;;;-0.70;79.66
77003;BME280;65939;50.060;14.288;2024-01-16T05:15:19;96182.13;;;-0.71;79.08
77003;BME280;65939;50.060;14.288;2024-01-16T05:17:20;96189.81;;;-0.71;79.71
77003;BME280;65939;50.060;14.288;2024-01-16T05:19:21;96190.63;;;-0.70;79.87
77003;BME280;65939;50.060;14.288;2024-01-16T05:21:21;96194.00;;;-0.70;80.19
77003;BME280;65939;50.060;14.288;2024-01-16T05:23:22;96190.50;;;-0.69;79.87
77003;BME280;65939;50.060;14.288;2024-01-16T05:25:23;96191.31;;;-0.68;80.17
77003;BME280;65939;50.060;14.288;2024-01-16T05:27:24;96191.31;;;-0.68;80.36
77003;BME280;65939;50.060;14.288;2024-01-16T05:29:24;96194.47;;;-0.65;80.53
77003;BME280;65939;50.060;14.288;2024-01-16T05:31:25;96198.56;;;-0.62;80.10
77003;BME280;65939;50.060;14.288;2024-01-16T05:33:25;96194.97;;;-0.60;80.23
77003;BME280;65939;50.060;14.288;2024-01-16T05:35:27;96199.16;;;-0.59;80.19
77003;BME280;65939;50.060;14.288;2024-01-16T05:37:28;96200.69;;;-0.56;79.83
77003;BME280;65939;50.060;14.288;2024-01-16T05:39:29;96208.16;;;-0.53;79.74
77003;BME280;65939;50.060;14.288;2024-01-16T05:41:34;96200.19;;;-0.50;79.98
77003;BME280;65939;50.060;14.288;2024-01-16T05:43:35;96206.75;;;-0.46;79.75
77003;BME280;65939;50.060;14.288;2024-01-16T05:45:36;96208.97;;;-0.41;79.45
77003;BME280;65939;50.060;14.288;2024-01-16T05:47:36;96209.56;;;-0.38;79.71
77003;BME280;65939;50.060;14.288;2024-01-16T05:49:37;96198.94;;;-0.33;79.77
77003;BME280;65939;50.060;14.288;2024-01-16T05:51:38;96212.56;;;-0.33;79.71
77003;BME280;65939;50.060;14.288;2024-01-16T05:53:38;96211.31;;;-0.27;79.61
77003;BME280;65939;50.060;14.288;2024-01-16T05:55:39;96219.47;;;-0.22;78.96
77003;BME280;65939;50.060;14.288;2024-01-16T05:57:40;96217.63;;;-0.20;79.52
77003;BME280;65939;50.060;14.288;2024-01-16T05:59:41;96210.72;;;-0.19;78.84
77003;BME280;65939;50.060;14.288;2024-01-16T06:01:42;96215.88;;;-0.19;78.91
77003;BME280;65939;50.060;14.288;2024-01-16T06:03:42;96222.75;;;-0.20;78.47
77003;BME280;65939;50.060;14.288;2024-01-16T06:05:45;96219.47;;;-0.22;77.82
77003;BME280;65939;50.060;14.288;2024-01-16T06:07:46;96212.00;;;-0.25;78.30
77003;BME280;65939;50.060;14.288;2024-01-16T06:09:47;96219.00;;;-0.27;78.09
77003;BME280;65939;50.060;14.288;2024-01-16T06:11:47;96216.66;;;-0.30;78.74
77003;BME280;65939;50.060;14.288;2024-01-16T06:13:48;96232.06;;;-0.30;77.74
77003;BME280;65939;50.060;14.288;2024-01-16T06:15:49;96231.34;;;-0.32;78.26
77003;BME280;65939;50.060;14.288;2024-01-16T06:17:49;96228.91;;;-0.34;78.30
77003;BME280;65939;50.060;14.288;2024-01-16T06:19:50;96223.91;;;-0.35;78.27
77003;BME280;65939;50.060;14.288;2024-01-16T06:21:51;96235.28;;;-0.39;78.33
77003;BME280;65939;50.060;14.288;2024-01-16T06:23:51;96232.41;;;-0.46;78.08
77003;BME280;65939;50.060;14.288;2024-01-16T06:25:52;96245.75;;;-0.54;78.31
77003;BME280;65939;50.060;14.288;2024-01-16T06:27:52;96248.78;;;-0.60;79.14
77003;BME280;65939;50.060;14.288;2024-01-16T06:29:53;96244.09;;;-0.66;78.77
77003;BME280;65939;50.060;14.288;2024-01-16T06:31:54;96247.91;;;-0.72;79.12
77003;BME280;65939;50.060;14.288;2024-01-16T06:33:54;96253.28;;;-0.75;79.22
77003;BME280;65939;50.060;14.288;2024-01-16T06:35:56;96254.53;;;-0.80;78.95
77003;BME280;65939;50.060;14.288;2024-01-16T06:37:56;96258.25;;;-0.84;79.20
77003;BME280;65939;50.060;14.288;2024-01-16T06:39:58;96257.53;;;-0.86;79.30
77003;BME280;65939;50.060;14.288;2024-01-16T06:41:58;96259.41;;;-0.88;78.44
77003;BME280;65939;50.060;14.288;2024-01-16T06:43:59;96270.47;;;-0.88;78.70
77003;BME280;65939;50.060;14.288;2024-01-16T06:46:00;96277.94;;;-0.85;78.91
77003;BME280;65939;50.060;14.288;2024-01-16T06:48:01;96282.00;;;-0.82;79.45
77003;BME280;65939;50.060;14.288;2024-01-16T06:50:02;96280.97;;;-0.80;78.95
77003;BME280;65939;50.060;14.288;2024-01-16T06:52:03;96269.19;;;-0.82;79.50
77003;BME280;65939;50.060;14.288;2024-01-16T06:54:04;96270.25;;;-0.85;79.02
77003;BME280;65939;50.060;14.288;2024-01-16T06:56:08;96265.34;;;-0.88;78.94
77003;BME280;65939;50.060;14.288;2024-01-16T06:58:09;96266.50;;;-0.92;79.18
77003;BME280;65939;50.060;14.288;2024-01-16T07:00:10;96273.59;;;-0.95;78.90
77003;BME280;65939;50.060;14.288;2024-01-16T07:02:11;96278.94;;;-0.99;78.75
77003;BME280;65939;50.060;14.288;2024-01-16T07:04:12;96276.38;;;-0.99;78.56
77003;BME280;65939;50.060;14.288;2024-01-16T07:06:14;96286.72;;;-1.00;79.10
77003;BME280;65939;50.060;14.288;2024-01-16T07:08:15;96287.63;;;-1.01;78.35
77003;BME280;65939;50.060;14.288;2024-01-16T07:10:15;96279.16;;;-1.02;78.98
77003;BME280;65939;50.060;14.288;2024-01-16T07:12:19;96281.69;;;-1.02;78.81
77003;BME280;65939;50.060;14.288;2024-01-16T07:14:20;96286.81;;;-1.02;78.29
77003;BME280;65939;50.060;14.288;2024-01-16T07:16:20;96286.81;;;-1.02;78.24
77003;BME280;65939;50.060;14.288;2024-01-16T07:18:21;96287.63;;;-1.01;78.67
77003;BME280;65939;50.060;14.288;2024-01-16T07:20:22;96288.44;;;-1.01;77.93
77003;BME280;65939;50.060;14.288;2024-01-16T07:22:22;96292.69;;;-1.00;78.08
77003;BME280;65939;50.060;14.288;2024-01-16T07:24:23;96292.56;;;-0.98;78.36
77003;BME280;65939;50.060;14.288;2024-01-16T07:26:24;96303.59;;;-0.98;77.89
77003;BME280;65939;50.060;14.288;2024-01-16T07:28:25;96311.09;;;-0.94;77.85
77003;BME280;65939;50.060;14.288;2024-01-16T07:30:25;96314.25;;;-0.91;78.06
77003;BME280;65939;50.060;14.288;2024-01-16T07:32:26;96307.16;;;-0.87;78.08
77003;BME280;65939;50.060;14.288;2024-01-16T07:34:27;96316.25;;;-0.83;77.83
77003;BME280;65939;50.060;14.288;2024-01-16T07:36:27;96319.91;;;-0.75;77.70
77003;BME280;65939;50.060;14.288;2024-01-16T07:38:28;96315.16;;;-0.68;77.96
77003;BME280;65939;50.060;14.288;2024-01-16T07:40:29;96318.22;;;-0.63;77.42
77003;BME280;65939;50.060;14.288;2024-01-16T07:42:30;96322.06;;;-0.57;77.33
77003;BME280;65939;50.060;14.288;2024-01-16T07:44:34;96338.03;;;-0.54;76.73
77003;BME280;65939;50.060;14.288;2024-01-16T07:46:35;96337.00;;;-0.51;77.44
77003;BME280;65939;50.060;14.288;2024-01-16T07:48:35;96341.09;;;-0.49;77.25
77003;BME280;65939;50.060;14.288;2024-01-16T07:50:36;96342.72;;;-0.47;76.85
77003;BME280;65939;50.060;14.288;2024-01-16T07:52:37;96347.84;;;-0.47;76.33
77003;BME280;65939;50.060;14.288;2024-01-16T07:54:37;96346.81;;;-0.45;76.42
77003;BME280;65939;50.060;14.288;2024-01-16T07:56:38;96357.69;;;-0.41;76.32
77003;BME280;65939;50.060;14.288;2024-01-16T07:58:39;96354.91;;;-0.38;76.10
77003;BME280;65939;50.060;14.288;2024-01-16T08:00:39;96367.59;;;-0.37;76.25
77003;BME280;65939;50.060;14.288;2024-01-16T08:02:41;96367.03;;;-0.29;76.76
77003;BME280;65939;50.060;14.288;2024-01-16T08:04:42;96369.03;;;-0.21;75.39
77003;BME280;65939;50.060;14.288;2024-01-16T08:06:43;96362.31;;;-0.11;76.11
77003;BME280;65939;50.060;14.288;2024-01-16T08:08:44;96365.72;;;0.01;75.70
77003;BME280;65939;50.060;14.288;2024-01-16T08:10:44;96357.56;;;0.07;75.75
77003;BME280;65939;50.060;14.288;2024-01-16T08:12:45;96365.63;;;0.13;75.61
77003;BME280;65939;50.060;14.288;2024-01-16T08:14:46;96371.25;;;0.18;75.03
77003;BME280;65939;50.060;14.288;2024-01-16T08:16:47;96374.88;;;0.27;75.06
77003;BME280;65939;50.060;14.288;2024-01-16T08:18:47;96376.03;;;0.34;74.78
77003;BME280;65939;50.060;14.288;2024-01-16T08:20:48;96382.34;;;0.41;75.05
77003;BME280;65939;50.060;14.288;2024-01-16T08:22:49;96370.22;;;0.43;74.62
77003;BME280;65939;50.060;14.288;2024-01-16T08:24:50;96381.66;;;0.39;74.36
77003;BME280;65939;50.060;14.288;2024-01-16T08:26:51;96386.81;;;0.39;74.29
77003;BME280;65939;50.060;14.288;2024-01-16T08:28:52;96382.13;;;0.44;74.41
77003;BME280;65939;50.060;14.288;2024-01-16T08:30:52;96384.47;;;0.47;74.49
77003;BME280;65939;50.060;14.288;2024-01-16T08:32:53;96388.19;;;0.55;74.13
77003;BME280;65939;50.060;14.288;2024-01-16T08:34:54;96395.78;;;0.56;74.15
77003;BME280;65939;50.060;14.288;2024-01-16T08:36:54;96396.38;;;0.60;73.42
77003;BME280;65939;50.060;14.288;2024-01-16T08:38:57;96394.16;;;0.66;73.47
77003;BME280;65939;50.060;14.288;2024-01-16T08:40:57;96399.88;;;0.70;73.99
77003;BME280;65939;50.060;14.288;2024-01-16T08:42:58;96402.09;;;0.75;73.16
77003;BME280;65939;50.060;14.288;2024-01-16T08:44:59;96406.91;;;0.79;72.52
77003;BME280;65939;50.060;14.288;2024-01-16T08:47:01;96391.56;;;0.78;72.38
77003;BME280;65939;50.060;14.288;2024-01-16T08:49:05;96401.97;;;0.76;72.16
77003;BME280;65939;50.060;14.288;2024-01-16T08:51:07;96398.47;;;0.77;72.51
77003;BME280;65939;50.060;14.288;2024-01-16T08:53:09;96410.38;;;0.78;72.03
77003;BME280;65939;50.060;14.288;2024-01-16T08:55:10;96411.31;;;0.77;71.63
77003;BME280;65939;50.060;14.288;2024-01-16T08:57:11;96413.06;;;0.77;71.94
77003;BME280;65939;50.060;14.288;2024-01-16T08:59:13;96422.31;;;0.79;71.25
77003;BME280;65939;50.060;14.288;2024-01-16T09:01:14;96402.34;;;0.83;71.08
77003;BME280;65939;50.060;14.288;2024-01-16T09:03:15;96412.97;;;0.89;71.41
77003;BME280;65939;50.060;14.288;2024-01-16T09:05:16;96409.91;;;0.95;71.46
77003;BME280;65939;50.060;14.288;2024-01-16T09:07:17;96416.00;;;0.94;71.17
77003;BME280;65939;50.060;14.288;2024-01-16T09:09:18;96411.28;;;1.00;71.81
77003;BME280;65939;50.060;14.288;2024-01-16T09:11:19;96417.72;;;1.05;71.93
77003;BME280;65939;50.060;14.288;2024-01-16T09:13:20;96415.75;;;1.09;72.34
77003;BME280;65939;50.060;14.288;2024-01-16T09:15:22;96424.16;;;1.11;72.24
77003;BME280;65939;50.060;14.288;2024-01-16T09:17:22;96421.22;;;1.15;72.36
77003;BME280;65939;50.060;14.288;2024-01-16T09:19:23;96420.63;;;1.23;72.17
77003;BME280;65939;50.060;14.288;2024-01-16T09:21:24;96420.41;;;1.26;72.43
77003;BME280;65939;50.060;14.288;2024-01-16T09:23:25;96418.03;;;1.34;71.75
77003;BME280;65939;50.060;14.288;2024-01-16T09:25:26;96416.16;;;1.36;71.77
77003;BME280;65939;50.060;14.288;2024-01-16T09:27:28;96426.22;;;1.39;71.60
77003;BME280;65939;50.060;14.288;2024-01-16T09:29:28;96426.66;;;1.44;72.65
77003;BME280;65939;50.060;14.288;2024-01-16T09:31:29;96425.38;;;1.50;71.90
77003;BME280;65939;50.060;14.288;2024-01-16T09:33:30;96428.88;;;1.49;72.05
77003;BME280;65939;50.060;14.288;2024-01-16T09:35:30;96422.00;;;1.38;71.61
77003;BME280;65939;50.060;14.288;2024-01-16T09:37:31;96418.50;;;1.39;71.88
77003;BME280;65939;50.060;14.288;2024-01-16T09:39:31;96427.84;;;1.40;71.34
77003;BME280;65939;50.060;14.288;2024-01-16T09:41:34;96424.09;;;1.44;71.36
77003;BME280;65939;50.060;14.288;2024-01-16T09:43:36;96435.44;;;1.53;71.76
77003;BME280;65939;50.060;14.288;2024-01-16T09:45:38;96437.06;;;1.54;71.96
77003;BME280;65939;50.060;14.288;2024-01-16T09:47:39;96430.97;;;1.55;70.95
77003;BME280;65939;50.060;14.288;2024-01-16T09:49:42;96432.47;;;1.58;71.24
77003;BME280;65939;50.060;14.288;2024-01-16T09:51:43;96425.22;;;1.63;71.40
77003;BME280;65939;50.060;14.288;2024-01-16T09:53:44;96423.34;;;1.65;71.48
77003;BME280;65939;50.060;14.288;2024-01-16T09:55:45;96424.28;;;1.64;71.30
77003;BME280;65939;50.060;14.288;2024-01-16T09:57:51;96427.91;;;1.61;71.13
77003;BME280;65939;50.060;14.288;2024-01-16T09:59:52;96419.63;;;1.58;70.55
77003;BME280;65939;50.060;14.288;2024-01-16T10:01:55;96422.31;;;1.56;70.82
77003;BME280;65939;50.060;14.288;2024-01-16T10:03:56;96424.06;;;1.56;70.76
77003;BME280;65939;50.060;14.288;2024-01-16T10:05:57;96431.91;;;1.54;70.86
77003;BME280;65939;50.060;14.288;2024-01-16T10:08:00;96428.53;;;1.54;70.50
77003;BME280;65939;50.060;14.288;2024-01-16T10:10:01;96420.81;;;1.54;70.07
77003;BME280;65939;50.060;14.288;2024-01-16T10:12:03;96428.38;;;1.55;69.85
77003;BME280;65939;50.060;14.288;2024-01-16T10:14:04;96422.81;;;1.50;70.09
77003;BME280;65939;50.060;14.288;2024-01-16T10:16:05;96428.19;;;1.47;69.34
77003;BME280;65939;50.060;14.288;2024-01-16T10:18:21;96415.13;;;1.39;69.05
77003;BME280;65939;50.060;14.288;2024-01-16T10:20:33;96413.47;;;1.38;69.59
77003;BME280;65939;50.060;14.288;2024-01-16T10:22:34;96409.97;;;1.39;68.71
77003;BME280;65939;50.060;14.288;2024-01-16T10:24:35;96415.81;;;1.30;68.75
77003;BME280;65939;50.060;14.288;2024-01-16T10:26:36;96422.84;;;1.28;68.52
77003;BME280;65939;50.060;14.288;2024-01-16T10:28:38;96410.44;;;1.33;68.53
77003;BME280;65939;50.060;14.288;2024-01-16T10:30:39;96418.84;;;1.35;68.82
77003;BME280;65939;50.060;14.288;2024-01-16T10:32:41;96412.41;;;1.40;68.79
77003;BME280;65939;50.060;14.288;2024-01-16T10:34:42;96411.94;;;1.47;68.55